BOS weather

General Edward Lawrence Logan International Airport
Boston, Massachusetts, United States

Public forecast

Using degrees Fahrenheit for public forecast. Weather courtesy of forecast.io.

METAR (pilot weather report)

Retrieved 2019/02/17 13:54 UTC (37 minutes ago):

KBOS 171354Z 33010KT 10SM CLR M03/M14 A3014 RMK AO2 SLP205 T10281139

TAF (pilot weather forecast)

Retrieved 2019/02/17 12:28 UTC (2 hours ago):

TAF KBOS 171120Z 1712/1818 33012KT P6SM SKC FM171800 02004KT P6SM FEW250 FM172100 08004KT P6SM SCT250 FM180200 14004KT P6SM BKN120 FM180600 18004KT 4SM -SN OVC060 FM180900 10004KT 1SM -SN OVC010 FM181400 06008KT 4SM -SN OVC008